sensor_id;sensor_type;location;lat;lon;timestamp;temperature;humidity
48488;DHT22;34289;48.572;13.378;2023-04-07T00:00:20;-1.00;99.90
48488;DHT22;34289;48.572;13.378;2023-04-07T00:02:45;-0.90;99.90
48488;DHT22;34289;48.572;13.378;2023-04-07T00:05:11;-0.90;99.90
48488;DHT22;34289;48.572;13.378;2023-04-07T00:07:37;-1.10;99.90
48488;DHT22;34289;48.572;13.378;2023-04-07T00:10:03;-1.10;99.90
48488;DHT22;34289;48.572;13.378;2023-04-07T00:12:28;-1.10;99.90
48488;DHT22;34289;48.572;13.378;2023-04-07T00:14:54;-1.40;99.90
48488;DHT22;34289;48.572;13.378;2023-04-07T00:17:19;-1.30;99.90
48488;DHT22;34289;48.572;13.378;2023-04-07T00:19:45;-1.60;99.90
48488;DHT22;34289;48.572;13.378;2023-04-07T00:22:10;-1.60;99.90
48488;DHT22;34289;48.572;13.378;2023-04-07T00:24:36;-1.70;99.90
48488;DHT22;34289;48.572;13.378;2023-04-07T00:27:02;-1.60;99.90
48488;DHT22;34289;48.572;13.378;2023-04-07T00:29:27;-1.50;99.90
48488;DHT22;34289;48.572;13.378;2023-04-07T00:31:53;-1.60;99.90
48488;DHT22;34289;48.572;13.378;2023-04-07T00:34:19;-1.60;99.90
48488;DHT22;34289;48.572;13.378;2023-04-07T00:36:44;-1.80;99.90
48488;DHT22;34289;48.572;13.378;2023-04-07T00:39:19;-1.80;99.90
48488;DHT22;34289;48.572;13.378;2023-04-07T00:41:46;-1.70;99.90
48488;DHT22;34289;48.572;13.378;2023-04-07T00:44:12;-1.70;99.90
48488;DHT22;34289;48.572;13.378;2023-04-07T00:46:37;-1.80;99.90
48488;DHT22;34289;48.572;13.378;2023-04-07T00:49:03;-1.90;99.90
48488;DHT22;34289;48.572;13.378;2023-04-07T00:51:30;-1.80;99.90
48488;DHT22;34289;48.572;13.378;2023-04-07T00:53:56;-1.80;99.90
48488;DHT22;34289;48.572;13.378;2023-04-07T00:56:21;-1.80;99.90
48488;DHT22;34289;48.572;13.378;2023-04-07T00:58:47;-1.80;99.90
48488;DHT22;34289;48.572;13.378;2023-04-07T01:01:30;-1.80;99.90
48488;DHT22;34289;48.572;13.378;2023-04-07T01:04:01;-1.90;99.90
48488;DHT22;34289;48.572;13.378;2023-04-07T01:06:32;-1.90;99.90
48488;DHT22;34289;48.572;13.378;2023-04-07T01:09:34;-1.80;99.90
48488;DHT22;34289;48.572;13.378;2023-04-07T01:14:53;-1.50;99.90
48488;DHT22;34289;48.572;13.378;2023-04-07T01:17:22;-1.60;99.90
48488;DHT22;34289;48.572;13.378;2023-04-07T01:19:58;-2.00;99.90
48488;DHT22;34289;48.572;13.378;2023-04-07T01:22:31;-2.00;99.90
48488;DHT22;34289;48.572;13.378;2023-04-07T01:28:13;-2.30;99.90
48488;DHT22;34289;48.572;13.378;2023-04-07T01:30:16;-2.20;99.90
48488;DHT22;34289;48.572;13.378;2023-04-07T01:32:46;-2.20;99.90
48488;DHT22;34289;48.572;13.378;2023-04-07T01:35:15;-2.30;99.90
48488;DHT22;34289;48.572;13.378;2023-04-07T01:37:42;-2.30;99.90
48488;DHT22;34289;48.572;13.378;2023-04-07T01:40:11;-2.20;99.90
48488;DHT22;34289;48.572;13.378;2023-04-07T01:42:38;-1.50;99.90
48488;DHT22;34289;48.572;13.378;2023-04-07T01:45:05;-2.20;99.90
48488;DHT22;34289;48.572;13.378;2023-04-07T01:47:31;-2.20;99.90
48488;DHT22;34289;48.572;13.378;2023-04-07T01:49:58;-2.20;99.90
48488;DHT22;34289;48.572;13.378;2023-04-07T01:52:26;-2.10;99.90
48488;DHT22;34289;48.572;13.378;2023-04-07T01:54:53;-2.20;99.90
48488;DHT22;34289;48.572;13.378;2023-04-07T01:57:18;-2.30;99.90
48488;DHT22;34289;48.572;13.378;2023-04-07T01:59:45;-2.50;99.90
48488;DHT22;34289;48.572;13.378;2023-04-07T02:02:11;-2.40;99.90
48488;DHT22;34289;48.572;13.378;2023-04-07T02:04:48;-2.40;99.90
48488;DHT22;34289;48.572;13.378;2023-04-07T02:07:19;-2.30;99.90
48488;DHT22;34289;48.572;13.378;2023-04-07T02:09:47;-2.50;99.90
48488;DHT22;34289;48.572;13.378;2023-04-07T02:12:14;-2.50;99.90
48488;DHT22;34289;48.572;13.378;2023-04-07T02:14:42;-2.60;99.90
48488;DHT22;34289;48.572;13.378;2023-04-07T02:17:08;-2.90;99.90
48488;DHT22;34289;48.572;13.378;2023-04-07T02:19:34;-3.20;99.90
48488;DHT22;34289;48.572;13.378;2023-04-07T02:22:02;-3.20;99.90
48488;DHT22;34289;48.572;13.378;2023-04-07T02:24:28;-2.90;99.90
48488;DHT22;34289;48.572;13.378;2023-04-07T02:26:53;-2.80;99.90
48488;DHT22;34289;48.572;13.378;2023-04-07T02:29:20;-2.70;99.90
48488;DHT22;34289;48.572;13.378;2023-04-07T02:31:46;-2.60;99.90
48488;DHT22;34289;48.572;13.378;2023-04-07T02:34:11;-2.40;99.90
48488;DHT22;34289;48.572;13.378;2023-04-07T02:36:37;-2.40;99.90
48488;DHT22;34289;48.572;13.378;2023-04-07T02:39:02;-2.30;99.90
48488;DHT22;34289;48.572;13.378;2023-04-07T02:41:28;-2.40;99.90
48488;DHT22;34289;48.572;13.378;2023-04-07T02:43:54;-2.40;99.90
48488;DHT22;34289;48.572;13.378;2023-04-07T02:46:19;-2.60;99.90
48488;DHT22;34289;48.572;13.378;2023-04-07T02:48:45;-2.80;99.90
48488;DHT22;34289;48.572;13.378;2023-04-07T02:51:11;-2.80;99.90
48488;DHT22;34289;48.572;13.378;2023-04-07T02:53:36;-3.00;99.90
48488;DHT22;34289;48.572;13.378;2023-04-07T02:56:02;-2.90;99.90
48488;DHT22;34289;48.572;13.378;2023-04-07T02:58:28;-2.80;99.90
48488;DHT22;34289;48.572;13.378;2023-04-07T03:00:53;-2.80;99.90
48488;DHT22;34289;48.572;13.378;2023-04-07T03:03:19;-2.90;99.90
48488;DHT22;34289;48.572;13.378;2023-04-07T03:05:45;-2.70;99.90
48488;DHT22;34289;48.572;13.378;2023-04-07T03:08:10;-2.80;99.90
48488;DHT22;34289;48.572;13.378;2023-04-07T03:10:36;-2.90;99.90
48488;DHT22;34289;48.572;13.378;2023-04-07T03:13:01;-2.90;99.90
48488;DHT22;34289;48.572;13.378;2023-04-07T03:15:27;-2.80;99.90
48488;DHT22;34289;48.572;13.378;2023-04-07T03:17:52;-3.00;99.90
48488;DHT22;34289;48.572;13.378;2023-04-07T03:20:18;-3.30;99.90
48488;DHT22;34289;48.572;13.378;2023-04-07T03:22:44;-3.30;99.90
48488;DHT22;34289;48.572;13.378;2023-04-07T03:25:11;-3.20;99.90
48488;DHT22;34289;48.572;13.378;2023-04-07T03:27:37;-3.10;99.90
48488;DHT22;34289;48.572;13.378;2023-04-07T03:30:03;-2.90;99.90
48488;DHT22;34289;48.572;13.378;2023-04-07T03:32:29;-2.90;99.90
48488;DHT22;34289;48.572;13.378;2023-04-07T03:34:54;-2.80;99.90
48488;DHT22;34289;48.572;13.378;2023-04-07T03:37:20;-2.80;99.90
48488;DHT22;34289;48.572;13.378;2023-04-07T03:39:46;-2.80;99.90
48488;DHT22;34289;48.572;13.378;2023-04-07T03:42:12;-3.00;99.90
48488;DHT22;34289;48.572;13.378;2023-04-07T03:44:37;-2.90;99.90
48488;DHT22;34289;48.572;13.378;2023-04-07T03:47:03;-3.00;99.90
48488;DHT22;34289;48.572;13.378;2023-04-07T03:49:29;-3.10;99.90
48488;DHT22;34289;48.572;13.378;2023-04-07T03:51:55;-3.20;99.90
48488;DHT22;34289;48.572;13.378;2023-04-07T03:54:22;-3.10;99.90
48488;DHT22;34289;48.572;13.378;2023-04-07T03:56:47;-3.10;99.90
48488;DHT22;34289;48.572;13.378;2023-04-07T03:59:13;-3.50;99.90
48488;DHT22;34289;48.572;13.378;2023-04-07T04:01:39;-3.60;99.90
48488;DHT22;34289;48.572;13.378;2023-04-07T04:04:04;-3.60;99.90
48488;DHT22;34289;48.572;13.378;2023-04-07T04:06:30;-3.50;99.90
48488;DHT22;34289;48.572;13.378;2023-04-07T04:08:56;-3.50;99.90
48488;DHT22;34289;48.572;13.378;2023-04-07T04:11:22;-3.30;99.90
48488;DHT22;34289;48.572;13.378;2023-04-07T04:13:47;-3.20;99.90
48488;DHT22;34289;48.572;13.378;2023-04-07T04:16:13;-3.20;99.90
48488;DHT22;34289;48.572;13.378;2023-04-07T04:18:38;-3.40;99.90
48488;DHT22;34289;48.572;13.378;2023-04-07T04:21:06;-3.30;99.90
48488;DHT22;34289;48.572;13.378;2023-04-07T04:23:31;-3.40;99.90
48488;DHT22;34289;48.572;13.378;2023-04-07T04:25:57;-3.40;99.90
48488;DHT22;34289;48.572;13.378;2023-04-07T04:28:24;-3.40;99.90
48488;DHT22;34289;48.572;13.378;2023-04-07T04:30:50;-3.40;99.90
48488;DHT22;34289;48.572;13.378;2023-04-07T04:33:15;-3.20;99.90
48488;DHT22;34289;48.572;13.378;2023-04-07T04:35:41;-3.20;99.90
48488;DHT22;34289;48.572;13.378;2023-04-07T04:38:06;-3.30;99.90
48488;DHT22;34289;48.572;13.378;2023-04-07T04:40:32;-3.30;99.90
48488;DHT22;34289;48.572;13.378;2023-04-07T04:42:57;-3.40;99.90
48488;DHT22;34289;48.572;13.378;2023-04-07T04:45:23;-3.40;99.90
48488;DHT22;34289;48.572;13.378;2023-04-07T04:47:49;-3.30;99.90
48488;DHT22;34289;48.572;13.378;2023-04-07T04:50:15;-3.40;99.90
48488;DHT22;34289;48.572;13.378;2023-04-07T04:52:40;-3.60;99.90
48488;DHT22;34289;48.572;13.378;2023-04-07T04:55:06;-3.70;99.90
48488;DHT22;34289;48.572;13.378;2023-04-07T04:57:32;-3.60;99.90
48488;DHT22;34289;48.572;13.378;2023-04-07T05:00:00;-3.60;99.90
48488;DHT22;34289;48.572;13.378;2023-04-07T05:02:26;-3.60;99.90
48488;DHT22;34289;48.572;13.378;2023-04-07T05:04:51;-3.70;99.90
48488;DHT22;34289;48.572;13.378;2023-04-07T05:07:17;-3.50;99.90
48488;DHT22;34289;48.572;13.378;2023-04-07T05:09:43;-3.50;99.90
48488;DHT22;34289;48.572;13.378;2023-04-07T05:12:08;-3.50;99.90
48488;DHT22;34289;48.572;13.378;2023-04-07T05:14:34;-3.40;99.90
48488;DHT22;34289;48.572;13.378;2023-04-07T05:17:00;-3.40;99.90
48488;DHT22;34289;48.572;13.378;2023-04-07T05:19:26;-3.30;99.90
48488;DHT22;34289;48.572;13.378;2023-04-07T05:21:53;-3.30;99.90
48488;DHT22;34289;48.572;13.378;2023-04-07T05:24:19;-3.40;99.90
48488;DHT22;34289;48.572;13.378;2023-04-07T05:26:45;-3.40;99.90
48488;DHT22;34289;48.572;13.378;2023-04-07T05:29:10;-3.60;99.90
48488;DHT22;34289;48.572;13.378;2023-04-07T05:31:36;-3.50;99.90
48488;DHT22;34289;48.572;13.378;2023-04-07T05:34:02;-3.30;99.90
48488;DHT22;34289;48.572;13.378;2023-04-07T05:36:27;-3.10;99.90
48488;DHT22;34289;48.572;13.378;2023-04-07T05:38:53;-3.00;99.90
48488;DHT22;34289;48.572;13.378;2023-04-07T05:41:18;-3.00;99.90
48488;DHT22;34289;48.572;13.378;2023-04-07T05:43:44;-2.80;99.90
48488;DHT22;34289;48.572;13.378;2023-04-07T05:46:09;-2.60;99.90
48488;DHT22;34289;48.572;13.378;2023-04-07T05:48:35;-2.60;99.90
48488;DHT22;34289;48.572;13.378;2023-04-07T05:51:01;-2.50;99.90
48488;DHT22;34289;48.572;13.378;2023-04-07T05:53:26;-2.10;99.90
48488;DHT22;34289;48.572;13.378;2023-04-07T05:55:52;-2.00;99.90
48488;DHT22;34289;48.572;13.378;2023-04-07T05:58:17;-1.80;99.90
48488;DHT22;34289;48.572;13.378;2023-04-07T06:00:43;-1.50;99.90
48488;DHT22;34289;48.572;13.378;2023-04-07T06:03:09;-1.60;99.90
48488;DHT22;34289;48.572;13.378;2023-04-07T06:05:34;-1.40;99.90
48488;DHT22;34289;48.572;13.378;2023-04-07T06:08:00;-1.30;99.90
48488;DHT22;34289;48.572;13.378;2023-04-07T06:10:25;-1.20;99.90
48488;DHT22;34289;48.572;13.378;2023-04-07T06:12:51;-0.80;99.90
48488;DHT22;34289;48.572;13.378;2023-04-07T06:15:16;-0.80;99.90
48488;DHT22;34289;48.572;13.378;2023-04-07T06:17:42;-0.40;99.90
48488;DHT22;34289;48.572;13.378;2023-04-07T06:20:10;0.00;99.90
48488;DHT22;34289;48.572;13.378;2023-04-07T06:22:39;0.40;99.90
48488;DHT22;34289;48.572;13.378;2023-04-07T06:25:05;0.90;99.90
48488;DHT22;34289;48.572;13.378;2023-04-07T06:27:31;1.40;99.90
48488;DHT22;34289;48.572;13.378;2023-04-07T06:29:57;1.90;99.90
48488;DHT22;34289;48.572;13.378;2023-04-07T06:32:23;2.10;99.90
48488;DHT22;34289;48.572;13.378;2023-04-07T06:34:49;2.30;99.90
48488;DHT22;34289;48.572;13.378;2023-04-07T06:37:15;2.60;99.90
48488;DHT22;34289;48.572;13.378;2023-04-07T06:39:41;2.90;99.90
48488;DHT22;34289;48.572;13.378;2023-04-07T06:42:06;3.00;99.90
48488;DHT22;34289;48.572;13.378;2023-04-07T06:44:32;3.20;99.90
48488;DHT22;34289;48.572;13.378;2023-04-07T06:46:57;3.40;99.90
48488;DHT22;34289;48.572;13.378;2023-04-07T06:49:26;3.60;99.90
48488;DHT22;34289;48.572;13.378;2023-04-07T06:51:52;3.70;99.90
48488;DHT22;34289;48.572;13.378;2023-04-07T06:54:17;3.80;99.90
48488;DHT22;34289;48.572;13.378;2023-04-07T06:56:43;3.70;99.90
48488;DHT22;34289;48.572;13.378;2023-04-07T06:59:09;3.90;99.90
48488;DHT22;34289;48.572;13.378;2023-04-07T07:01:34;4.00;99.90
48488;DHT22;34289;48.572;13.378;2023-04-07T07:04:01;4.30;99.90
48488;DHT22;34289;48.572;13.378;2023-04-07T07:06:27;4.40;99.90
48488;DHT22;34289;48.572;13.378;2023-04-07T07:08:53;5.30;99.90
48488;DHT22;34289;48.572;13.378;2023-04-07T07:11:19;5.10;99.90
48488;DHT22;34289;48.572;13.378;2023-04-07T07:13:45;5.40;99.90
48488;DHT22;34289;48.572;13.378;2023-04-07T07:16:12;5.30;99.90
48488;DHT22;34289;48.572;13.378;2023-04-07T07:18:37;5.20;99.90
48488;DHT22;34289;48.572;13.378;2023-04-07T07:21:03;5.40;99.90
48488;DHT22;34289;48.572;13.378;2023-04-07T07:23:29;5.70;99.90
48488;DHT22;34289;48.572;13.378;2023-04-07T07:25:55;5.70;99.90
48488;DHT22;34289;48.572;13.378;2023-04-07T07:28:21;7.10;99.90
48488;DHT22;34289;48.572;13.378;2023-04-07T07:30:47;7.20;99.90
48488;DHT22;34289;48.572;13.378;2023-04-07T07:33:12;6.30;99.90
48488;DHT22;34289;48.572;13.378;2023-04-07T07:35:38;6.20;99.90
48488;DHT22;34289;48.572;13.378;2023-04-07T07:38:05;6.40;99.90
48488;DHT22;34289;48.572;13.378;2023-04-07T07:40:31;6.70;99.90
48488;DHT22;34289;48.572;13.378;2023-04-07T07:42:56;7.30;99.90
48488;DHT22;34289;48.572;13.378;2023-04-07T07:45:22;7.80;99.90
48488;DHT22;34289;48.572;13.378;2023-04-07T07:47:48;7.00;99.90
48488;DHT22;34289;48.572;13.378;2023-04-07T07:50:13;7.10;99.90
48488;DHT22;34289;48.572;13.378;2023-04-07T07:52:39;7.10;99.90
48488;DHT22;34289;48.572;13.378;2023-04-07T07:55:05;7.10;99.90
48488;DHT22;34289;48.572;13.378;2023-04-07T07:57:31;7.30;99.90
48488;DHT22;34289;48.572;13.378;2023-04-07T07:59:56;7.80;99.90
48488;DHT22;34289;48.572;13.378;2023-04-07T08:02:22;9.50;99.90
48488;DHT22;34289;48.572;13.378;2023-04-07T08:04:53;10.30;99.90
48488;DHT22;34289;48.572;13.378;2023-04-07T08:07:19;8.80;99.90
48488;DHT22;34289;48.572;13.378;2023-04-07T08:09:46;8.80;99.90
48488;DHT22;34289;48.572;13.378;2023-04-07T08:12:12;8.80;99.90
48488;DHT22;34289;48.572;13.378;2023-04-07T08:14:38;9.50;99.90
48488;DHT22;34289;48.572;13.378;2023-04-07T08:17:04;9.60;99.90
48488;DHT22;34289;48.572;13.378;2023-04-07T08:19:30;9.50;99.90
48488;DHT22;34289;48.572;13.378;2023-04-07T08:21:55;9.40;99.90
48488;DHT22;34289;48.572;13.378;2023-04-07T08:24:21;9.30;99.90
48488;DHT22;34289;48.572;13.378;2023-04-07T08:26:47;9.90;99.90
48488;DHT22;34289;48.572;13.378;2023-04-07T08:29:12;9.60;99.90
48488;DHT22;34289;48.572;13.378;2023-04-07T08:31:38;9.90;99.90
48488;DHT22;34289;48.572;13.378;2023-04-07T08:34:03;10.00;99.90
48488;DHT22;34289;48.572;13.378;2023-04-07T08:36:29;10.10;99.30
48488;DHT22;34289;48.572;13.378;2023-04-07T08:38:55;10.40;96.20
48488;DHT22;34289;48.572;13.378;2023-04-07T08:41:39;10.50;96.20
48488;DHT22;34289;48.572;13.378;2023-04-07T08:44:06;10.50;96.30
48488;DHT22;34289;48.572;13.378;2023-04-07T08:46:33;10.70;96.40
48488;DHT22;34289;48.572;13.378;2023-04-07T08:49:00;10.70;95.40
48488;DHT22;34289;48.572;13.378;2023-04-07T08:51:30;10.90;94.70
48488;DHT22;34289;48.572;13.378;2023-04-07T08:54:13;10.70;95.20
48488;DHT22;34289;48.572;13.378;2023-04-07T08:56:40;10.70;95.20
48488;DHT22;34289;48.572;13.378;2023-04-07T08:59:07;10.60;96.30
48488;DHT22;34289;48.572;13.378;2023-04-07T09:01:34;10.50;95.10
48488;DHT22;34289;48.572;13.378;2023-04-07T09:04:05;10.80;98.10
48488;DHT22;34289;48.572;13.378;2023-04-07T09:06:32;10.90;96.60
48488;DHT22;34289;48.572;13.378;2023-04-07T09:08:59;11.10;96.40
48488;DHT22;34289;48.572;13.378;2023-04-07T09:11:28;10.90;95.20
48488;DHT22;34289;48.572;13.378;2023-04-07T09:13:55;10.80;94.90
48488;DHT22;34289;48.572;13.378;2023-04-07T09:16:21;11.20;95.00
48488;DHT22;34289;48.572;13.378;2023-04-07T09:18:48;11.20;95.40
48488;DHT22;34289;48.572;13.378;2023-04-07T09:21:13;11.10;95.20
48488;DHT22;34289;48.572;13.378;2023-04-07T09:23:41;11.50;98.30
48488;DHT22;34289;48.572;13.378;2023-04-07T09:26:25;12.00;96.60
48488;DHT22;34289;48.572;13.378;2023-04-07T09:28:59;12.40;97.20
48488;DHT22;34289;48.572;13.378;2023-04-07T09:31:47;13.00;95.90
48488;DHT22;34289;48.572;13.378;2023-04-07T09:34:30;13.40;93.60
48488;DHT22;34289;48.572;13.378;2023-04-07T09:36:56;13.80;94.00
48488;DHT22;34289;48.572;13.378;2023-04-07T09:39:23;13.90;93.00
48488;DHT22;34289;48.572;13.378;2023-04-07T09:41:48;14.00;93.20
48488;DHT22;34289;48.572;13.378;2023-04-07T09:44:14;13.80;92.80
48488;DHT22;34289;48.572;13.378;2023-04-07T09:46:56;13.60;91.70
48488;DHT22;34289;48.572;13.378;2023-04-07T09:49:23;13.60;92.80
48488;DHT22;34289;48.572;13.378;2023-04-07T09:51:59;13.20;93.80
48488;DHT22;34289;48.572;13.378;2023-04-07T09:54:31;13.20;94.20
48488;DHT22;34289;48.572;13.378;2023-04-07T09:57:05;13.50;92.60
48488;DHT22;34289;48.572;13.378;2023-04-07T09:59:32;13.50;93.10
48488;DHT22;34289;48.572;13.378;2023-04-07T10:01:58;13.70;92.10
48488;DHT22;34289;48.572;13.378;2023-04-07T10:04:25;13.70;92.30
48488;DHT22;34289;48.572;13.378;2023-04-07T10:06:55;13.90;94.90
48488;DHT22;34289;48.572;13.378;2023-04-07T10:09:22;14.00;93.20
48488;DHT22;34289;48.572;13.378;2023-04-07T10:11:50;14.00;94.20
48488;DHT22;34289;48.572;13.378;2023-04-07T10:14:17;14.10;93.30
48488;DHT22;34289;48.572;13.378;2023-04-07T10:16:43;14.30;94.10
48488;DHT22;34289;48.572;13.378;2023-04-07T10:19:10;14.50;91.60
48488;DHT22;34289;48.572;13.378;2023-04-07T10:21:39;14.70;91.40
48488;DHT22;34289;48.572;13.378;2023-04-07T10:26:34;14.90;90.10
48488;DHT22;34289;48.572;13.378;2023-04-07T10:29:09;15.00;89.10
48488;DHT22;34289;48.572;13.378;2023-04-07T10:31:37;15.00;87.80
48488;DHT22;34289;48.572;13.378;2023-04-07T10:34:03;15.30;89.80
48488;DHT22;34289;48.572;13.378;2023-04-07T10:36:30;15.50;89.20
48488;DHT22;34289;48.572;13.378;2023-04-07T10:41:35;15.20;82.90
48488;DHT22;34289;48.572;13.378;2023-04-07T10:44:05;15.10;88.20
48488;DHT22;34289;48.572;13.378;2023-04-07T10:49:16;14.30;82.00
48488;DHT22;34289;48.572;13.378;2023-04-07T10:51:43;14.30;81.60
48488;DHT22;34289;48.572;13.378;2023-04-07T10:54:15;14.50;81.10
48488;DHT22;34289;48.572;13.378;2023-04-07T10:59:32;14.00;82.00
48488;DHT22;34289;48.572;13.378;2023-04-07T11:04:44;14.20;86.90
48488;DHT22;34289;48.572;13.378;2023-04-07T11:07:11;14.70;85.30
48488;DHT22;34289;48.572;13.378;2023-04-07T11:09:37;15.00;82.40
48488;DHT22;34289;48.572;13.378;2023-04-07T11:12:03;15.20;85.40
48488;DHT22;34289;48.572;13.378;2023-04-07T11:14:30;15.00;85.10
48488;DHT22;34289;48.572;13.378;2023-04-07T11:16:58;14.80;85.30
48488;DHT22;34289;48.572;13.378;2023-04-07T11:19:24;14.80;81.50
48488;DHT22;34289;48.572;13.378;2023-04-07T11:22:14;15.10;86.60
48488;DHT22;34289;48.572;13.378;2023-04-07T11:24:40;14.90;87.20
48488;DHT22;34289;48.572;13.378;2023-04-07T11:27:12;14.40;84.90
48488;DHT22;34289;48.572;13.378;2023-04-07T11:29:37;13.90;87.20
48488;DHT22;34289;48.572;13.378;2023-04-07T11:32:03;14.40;85.00
48488;DHT22;34289;48.572;13.378;2023-04-07T11:34:30;14.60;84.00
48488;DHT22;34289;48.572;13.378;2023-04-07T11:36:56;14.90;83.10
48488;DHT22;34289;48.572;13.378;2023-04-07T11:39:26;15.10;86.60
48488;DHT22;34289;48.572;13.378;2023-04-07T11:41:55;15.00;85.20
48488;DHT22;34289;48.572;13.378;2023-04-07T11:44:21;14.70;84.40
48488;DHT22;34289;48.572;13.378;2023-04-07T11:47:00;14.60;84.10
48488;DHT22;34289;48.572;13.378;2023-04-07T11:49:28;14.80;85.50
48488;DHT22;34289;48.572;13.378;2023-04-07T11:52:04;14.60;84.50
48488;DHT22;34289;48.572;13.378;2023-04-07T11:54:43;14.60;86.00
48488;DHT22;34289;48.572;13.378;2023-04-07T11:57:11;14.10;86.80
48488;DHT22;34289;48.572;13.378;2023-04-07T11:59:37;14.20;85.30
48488;DHT22;34289;48.572;13.378;2023-04-07T12:02:03;14.20;87.50
48488;DHT22;34289;48.572;13.378;2023-04-07T12:04:29;14.40;86.50
48488;DHT22;34289;48.572;13.378;2023-04-07T12:07:09;14.80;86.40
48488;DHT22;34289;48.572;13.378;2023-04-07T12:09:36;15.40;87.30
48488;DHT22;34289;48.572;13.378;2023-04-07T12:12:05;15.80;83.00
48488;DHT22;34289;48.572;13.378;2023-04-07T12:14:32;15.90;83.80
48488;DHT22;34289;48.572;13.378;2023-04-07T12:16:58;15.80;86.10
48488;DHT22;34289;48.572;13.378;2023-04-07T12:19:27;15.60;83.40
48488;DHT22;34289;48.572;13.378;2023-04-07T12:21:54;15.50;85.50
48488;DHT22;34289;48.572;13.378;2023-04-07T12:24:20;15.30;87.10
48488;DHT22;34289;48.572;13.378;2023-04-07T12:26:46;15.40;85.30
48488;DHT22;34289;48.572;13.378;2023-04-07T12:29:12;15.40;84.20
48488;DHT22;34289;48.572;13.378;2023-04-07T12:31:38;15.50;86.70
48488;DHT22;34289;48.572;13.378;2023-04-07T12:34:04;15.30;85.60
48488;DHT22;34289;48.572;13.378;2023-04-07T12:36:30;14.90;87.80
48488;DHT22;34289;48.572;13.378;2023-04-07T12:38:56;15.00;88.00
48488;DHT22;34289;48.572;13.378;2023-04-07T12:41:23;15.10;84.20
48488;DHT22;34289;48.572;13.378;2023-04-07T12:43:49;15.00;83.30
48488;DHT22;34289;48.572;13.378;2023-04-07T12:46:15;15.00;84.90
48488;DHT22;34289;48.572;13.378;2023-04-07T12:48:41;14.90;82.20
48488;DHT22;34289;48.572;13.378;2023-04-07T12:51:07;14.80;83.30
48488;DHT22;34289;48.572;13.378;2023-04-07T12:53:32;14.80;84.80
48488;DHT22;34289;48.572;13.378;2023-04-07T12:55:58;14.90;81.40
48488;DHT22;34289;48.572;13.378;2023-04-07T12:58:24;14.90;81.30
48488;DHT22;34289;48.572;13.378;2023-04-07T13:00:51;14.60;79.30
48488;DHT22;34289;48.572;13.378;2023-04-07T13:03:16;14.40;84.60
48488;DHT22;34289;48.572;13.378;2023-04-07T13:05:42;14.50;81.30
48488;DHT22;34289;48.572;13.378;2023-04-07T13:08:07;14.50;84.10
48488;DHT22;34289;48.572;13.378;2023-04-07T13:10:34;14.50;81.50
48488;DHT22;34289;48.572;13.378;2023-04-07T13:12:59;14.60;80.50
48488;DHT22;34289;48.572;13.378;2023-04-07T13:15:25;14.60;81.00
48488;DHT22;34289;48.572;13.378;2023-04-07T13:17:52;14.50;81.00
48488;DHT22;34289;48.572;13.378;2023-04-07T13:20:18;14.20;81.80
48488;DHT22;34289;48.572;13.378;2023-04-07T13:22:43;14.20;80.30
48488;DHT22;34289;48.572;13.378;2023-04-07T13:25:09;14.40;81.00
48488;DHT22;34289;48.572;13.378;2023-04-07T13:27:35;14.40;79.60
48488;DHT22;34289;48.572;13.378;2023-04-07T13:30:01;14.30;80.30
48488;DHT22;34289;48.572;13.378;2023-04-07T13:32:26;14.50;79.40
48488;DHT22;34289;48.572;13.378;2023-04-07T13:34:52;14.50;81.60
48488;DHT22;34289;48.572;13.378;2023-04-07T13:37:17;14.70;78.80
48488;DHT22;34289;48.572;13.378;2023-04-07T13:39:44;14.70;79.20
48488;DHT22;34289;48.572;13.378;2023-04-07T13:42:10;14.60;79.50
48488;DHT22;34289;48.572;13.378;2023-04-07T13:44:35;14.60;81.00
48488;DHT22;34289;48.572;13.378;2023-04-07T13:47:02;14.70;81.40
48488;DHT22;34289;48.572;13.378;2023-04-07T13:49:28;14.50;81.20
48488;DHT22;34289;48.572;13.378;2023-04-07T13:51:53;14.50;80.50
48488;DHT22;34289;48.572;13.378;2023-04-07T13:54:19;14.50;81.20
48488;DHT22;34289;48.572;13.378;2023-04-07T13:56:45;14.40;81.00
48488;DHT22;34289;48.572;13.378;2023-04-07T13:59:13;14.40;84.00
48488;DHT22;34289;48.572;13.378;2023-04-07T14:01:39;14.50;83.10
48488;DHT22;34289;48.572;13.378;2023-04-07T14:04:05;14.60;81.50
48488;DHT22;34289;48.572;13.378;2023-04-07T14:06:32;14.80;82.30
48488;DHT22;34289;48.572;13.378;2023-04-07T14:08:57;14.80;81.30
48488;DHT22;34289;48.572;13.378;2023-04-07T14:11:23;14.60;79.30
48488;DHT22;34289;48.572;13.378;2023-04-07T14:13:51;14.60;81.50
48488;DHT22;34289;48.572;13.378;2023-04-07T14:16:17;14.60;77.10
48488;DHT22;34289;48.572;13.378;2023-04-07T14:18:43;14.60;80.70
48488;DHT22;34289;48.572;13.378;2023-04-07T14:21:09;14.60;81.20
48488;DHT22;34289;48.572;13.378;2023-04-07T14:23:36;14.70;82.70
48488;DHT22;34289;48.572;13.378;2023-04-07T14:26:02;14.70;77.60
48488;DHT22;34289;48.572;13.378;2023-04-07T14:28:28;14.40;77.70
48488;DHT22;34289;48.572;13.378;2023-04-07T14:30:54;14.40;80.60
48488;DHT22;34289;48.572;13.378;2023-04-07T14:33:20;14.10;77.90
48488;DHT22;34289;48.572;13.378;2023-04-07T14:35:47;13.80;78.20
48488;DHT22;34289;48.572;13.378;2023-04-07T14:38:12;13.90;78.50
48488;DHT22;34289;48.572;13.378;2023-04-07T14:40:38;14.00;79.70
48488;DHT22;34289;48.572;13.378;2023-04-07T14:43:04;14.00;82.00
48488;DHT22;34289;48.572;13.378;2023-04-07T14:45:32;14.10;77.10
48488;DHT22;34289;48.572;13.378;2023-04-07T14:47:58;14.20;79.80
48488;DHT22;34289;48.572;13.378;2023-04-07T14:50:24;14.20;79.40
48488;DHT22;34289;48.572;13.378;2023-04-07T14:52:50;14.10;75.80
48488;DHT22;34289;48.572;13.378;2023-04-07T14:55:16;14.10;75.90
48488;DHT22;34289;48.572;13.378;2023-04-07T14:57:42;14.10;75.90
48488;DHT22;34289;48.572;13.378;2023-04-07T15:00:08;14.10;76.80
48488;DHT22;34289;48.572;13.378;2023-04-07T15:02:35;14.10;75.90
48488;DHT22;34289;48.572;13.378;2023-04-07T15:05:01;14.10;79.70
48488;DHT22;34289;48.572;13.378;2023-04-07T15:07:26;14.10;77.00
48488;DHT22;34289;48.572;13.378;2023-04-07T15:09:52;14.10;77.40
48488;DHT22;34289;48.572;13.378;2023-04-07T15:12:18;14.20;78.10
48488;DHT22;34289;48.572;13.378;2023-04-07T15:14:44;14.20;79.50
48488;DHT22;34289;48.572;13.378;2023-04-07T15:17:11;14.40;79.20
48488;DHT22;34289;48.572;13.378;2023-04-07T15:19:36;14.50;78.70
48488;DHT22;34289;48.572;13.378;2023-04-07T15:22:02;14.40;76.40
48488;DHT22;34289;48.572;13.378;2023-04-07T15:24:28;14.50;77.30
48488;DHT22;34289;48.572;13.378;2023-04-07T15:26:53;14.50;80.20
48488;DHT22;34289;48.572;13.378;2023-04-07T15:29:19;14.40;78.50
48488;DHT22;34289;48.572;13.378;2023-04-07T15:31:45;14.40;80.30
48488;DHT22;34289;48.572;13.378;2023-04-07T15:34:10;14.30;79.80